RPA5631 KIND-KBOS
Flight info
| Callsign | RPA5631 |
|---|---|
| Flight time | 1h 42m |
| Altitude | 35000 |
| Route | MAREO5 BDOCK DJB JHW Q82 PONCT JFUND2 |
| Aircraft | E75L/M-SDE3GILORVW/S |
Departure
| Time | 2026-05-05 22:46 |
|---|---|
| Airport | Indianapolis International Airport (KIND) |
Arrival
| Time | 2026-05-06 00:29 |
|---|---|
| Airport | Boston Logan International Airport (KBOS) |
| Time | Latitude | Longitude | Altitude | Speed | Heading |
|---|---|---|---|---|---|
| 2026-05-05 22:22 | 39.71552 | -86.29523 | 779 ft | 0 kts | 140° |
| 2026-05-05 22:35 | 39.71569 | -86.29543 | 779 ft | 4 kts | 136° |
| 2026-05-05 22:35 | 39.71585 | -86.29562 | 779 ft | 3 kts | 140° |
| 2026-05-05 22:36 | 39.71598 | -86.29575 | 779 ft | 0 kts | 140° |
| 2026-05-05 22:38 | 39.71596 | -86.29572 | 779 ft | 1 kts | 122° |
| 2026-05-05 22:38 | 39.71601 | -86.29551 | 779 ft | 5 kts | 49° |
| 2026-05-05 22:39 | 39.71642 | -86.29517 | 779 ft | 9 kts | 32° |
| 2026-05-05 22:39 | 39.71693 | -86.29455 | 779 ft | 12 kts | 50° |
| 2026-05-05 22:39 | 39.71752 | -86.29365 | 779 ft | 14 kts | 47° |
| 2026-05-05 22:39 | 39.71829 | -86.29370 | 779 ft | 13 kts | 312° |
| 2026-05-05 22:40 | 39.71898 | -86.29478 | 779 ft | 18 kts | 309° |
| 2026-05-05 22:40 | 39.71981 | -86.29611 | 779 ft | 19 kts | 309° |
| 2026-05-05 22:40 | 39.72020 | -86.29724 | 779 ft | 7 kts | 247° |
| 2026-05-05 22:40 | 39.71971 | -86.29782 | 779 ft | 13 kts | 218° |
| 2026-05-05 22:41 | 39.71893 | -86.29864 | 779 ft | 16 kts | 219° |
| 2026-05-05 22:41 | 39.71865 | -86.29950 | 779 ft | 8 kts | 301° |
| 2026-05-05 22:41 | 39.71904 | -86.29997 | 779 ft | 10 kts | 311° |
| 2026-05-05 22:41 | 39.71949 | -86.30072 | 779 ft | 11 kts | 299° |
| 2026-05-05 22:42 | 39.71916 | -86.30155 | 779 ft | 13 kts | 223° |
| 2026-05-05 22:42 | 39.71845 | -86.30245 | 779 ft | 16 kts | 224° |
| 2026-05-05 22:42 | 39.71759 | -86.30356 | 778 ft | 19 kts | 225° |
| 2026-05-05 22:42 | 39.71661 | -86.30481 | 779 ft | 20 kts | 225° |
| 2026-05-05 22:43 | 39.71560 | -86.30610 | 779 ft | 21 kts | 225° |
| 2026-05-05 22:43 | 39.71456 | -86.30741 | 779 ft | 21 kts | 224° |
| 2026-05-05 22:43 | 39.71351 | -86.30875 | 779 ft | 22 kts | 224° |
| 2026-05-05 22:43 | 39.71243 | -86.31012 | 779 ft | 21 kts | 225° |
| 2026-05-05 22:44 | 39.71140 | -86.31144 | 778 ft | 20 kts | 224° |
| 2026-05-05 22:44 | 39.71041 | -86.31271 | 778 ft | 20 kts | 223° |
| 2026-05-05 22:44 | 39.70941 | -86.31397 | 778 ft | 21 kts | 224° |
| 2026-05-05 22:44 | 39.70830 | -86.31540 | 779 ft | 24 kts | 224° |
| 2026-05-05 22:45 | 39.70711 | -86.31692 | 779 ft | 23 kts | 224° |
| 2026-05-05 22:45 | 39.70610 | -86.31832 | 779 ft | 17 kts | 249° |
| 2026-05-05 22:45 | 39.70671 | -86.31945 | 777 ft | 18 kts | 324° |
| 2026-05-05 22:45 | 39.70794 | -86.31879 | 777 ft | 41 kts | 44° |
| 2026-05-05 22:46 | 39.71197 | -86.31374 | 774 ft | 118 kts | 44° |
| 2026-05-05 22:46 | 39.71924 | -86.30461 | 1093 ft | 162 kts | 41° |
| 2026-05-05 22:46 | 39.72793 | -86.29385 | 1981 ft | 184 kts | 45° |
| 2026-05-05 22:46 | 39.73702 | -86.28127 | 2628 ft | 204 kts | 45° |
| 2026-05-05 22:47 | 39.74729 | -86.26726 | 3257 ft | 223 kts | 45° |
| 2026-05-05 22:47 | 39.75858 | -86.25223 | 3888 ft | 240 kts | 45° |
| 2026-05-05 22:47 | 39.77027 | -86.23599 | 4569 ft | 250 kts | 53° |
| 2026-05-05 22:47 | 39.77788 | -86.21550 | 5227 ft | 259 kts | 77° |
| 2026-05-05 22:48 | 39.78142 | -86.19166 | 5852 ft | 275 kts | 86° |
| 2026-05-05 22:48 | 39.78366 | -86.16563 | 6370 ft | 306 kts | 87° |
| 2026-05-05 22:48 | 39.78618 | -86.13757 | 7196 ft | 316 kts | 85° |
| 2026-05-05 22:48 | 39.78957 | -86.10920 | 8196 ft | 320 kts | 83° |
| 2026-05-05 22:49 | 39.79330 | -86.08042 | 9170 ft | 324 kts | 82° |
| 2026-05-05 22:49 | 39.79698 | -86.05144 | 10120 ft | 326 kts | 82° |
| 2026-05-05 22:49 | 39.80065 | -86.02148 | 10687 ft | 345 kts | 83° |
| 2026-05-05 22:49 | 39.80428 | -85.99004 | 11299 ft | 359 kts | 83° |
| 2026-05-05 22:50 | 39.80801 | -85.95763 | 12194 ft | 363 kts | 82° |
| 2026-05-05 22:50 | 39.81187 | -85.92508 | 13219 ft | 365 kts | 82° |
| 2026-05-05 22:50 | 39.81576 | -85.89231 | 14229 ft | 367 kts | 82° |
| 2026-05-05 22:50 | 39.81964 | -85.85932 | 15222 ft | 370 kts | 81° |
| 2026-05-05 22:51 | 39.82344 | -85.82648 | 16146 ft | 375 kts | 81° |
| 2026-05-05 22:51 | 39.82726 | -85.79266 | 17009 ft | 380 kts | 81° |
| 2026-05-05 22:51 | 39.83105 | -85.75842 | 17836 ft | 386 kts | 81° |
| 2026-05-05 22:51 | 39.83484 | -85.72360 | 18619 ft | 391 kts | 81° |
| 2026-05-05 22:52 | 39.83864 | -85.68838 | 19401 ft | 395 kts | 81° |
| 2026-05-05 22:52 | 39.84244 | -85.65291 | 20181 ft | 399 kts | 81° |
| 2026-05-05 22:52 | 39.84623 | -85.61693 | 20928 ft | 403 kts | 81° |
| 2026-05-05 22:52 | 39.84999 | -85.58065 | 21581 ft | 407 kts | 81° |
| 2026-05-05 22:53 | 39.85376 | -85.54383 | 22239 ft | 411 kts | 81° |
| 2026-05-05 22:53 | 39.85750 | -85.50683 | 22920 ft | 415 kts | 81° |
| 2026-05-05 22:53 | 39.86124 | -85.46930 | 23559 ft | 419 kts | 81° |
| 2026-05-05 22:53 | 39.86498 | -85.43143 | 24115 ft | 423 kts | 81° |
| 2026-05-05 22:54 | 39.86871 | -85.39328 | 24713 ft | 426 kts | 81° |
| 2026-05-05 22:54 | 39.87242 | -85.35482 | 25273 ft | 431 kts | 81° |
| 2026-05-05 22:54 | 39.87609 | -85.31643 | 25821 ft | 434 kts | 81° |
| 2026-05-05 22:54 | 39.87978 | -85.27726 | 26371 ft | 438 kts | 81° |
| 2026-05-05 22:55 | 39.88287 | -85.23770 | 26886 ft | 441 kts | 85° |
| 2026-05-05 22:55 | 39.88533 | -85.19771 | 27372 ft | 444 kts | 83° |
| 2026-05-05 22:55 | 39.88793 | -85.15750 | 27882 ft | 448 kts | 84° |
| 2026-05-05 22:55 | 39.89036 | -85.11692 | 28361 ft | 451 kts | 84° |
| 2026-05-05 22:56 | 39.89266 | -85.07593 | 28871 ft | 454 kts | 84° |
| 2026-05-05 22:56 | 39.89488 | -85.03477 | 29334 ft | 457 kts | 84° |
| 2026-05-05 22:56 | 39.89708 | -84.99337 | 29779 ft | 460 kts | 84° |
| 2026-05-05 22:56 | 39.89928 | -84.95161 | 30179 ft | 464 kts | 84° |
| 2026-05-05 22:57 | 39.90148 | -84.90954 | 30570 ft | 466 kts | 84° |
| 2026-05-05 22:57 | 39.90367 | -84.86728 | 30924 ft | 468 kts | 84° |
| 2026-05-05 22:57 | 39.90582 | -84.82534 | 31256 ft | 471 kts | 84° |
| 2026-05-05 22:57 | 39.90801 | -84.78265 | 31586 ft | 474 kts | 84° |
| 2026-05-05 22:58 | 39.91019 | -84.73968 | 31942 ft | 475 kts | 84° |
| 2026-05-05 22:58 | 39.91235 | -84.69658 | 32287 ft | 477 kts | 84° |
| 2026-05-05 22:58 | 39.91451 | -84.65335 | 32713 ft | 476 kts | 84° |
| 2026-05-05 22:58 | 39.91663 | -84.61041 | 33121 ft | 475 kts | 84° |
| 2026-05-05 22:59 | 39.91874 | -84.56750 | 33546 ft | 474 kts | 85° |
| 2026-05-05 22:59 | 39.92082 | -84.52465 | 33899 ft | 474 kts | 85° |
| 2026-05-05 22:59 | 39.92290 | -84.48172 | 34224 ft | 473 kts | 85° |
| 2026-05-05 22:59 | 39.92495 | -84.43897 | 34568 ft | 472 kts | 85° |
| 2026-05-05 23:00 | 39.92901 | -84.35359 | 34975 ft | 478 kts | 85° |
| 2026-05-05 23:00 | 39.93390 | -84.26641 | 34823 ft | 490 kts | 78° |
| 2026-05-05 23:01 | 39.94416 | -84.22469 | 34864 ft | 482 kts | 59° |
| 2026-05-05 23:01 | 39.96337 | -84.18946 | 34880 ft | 476 kts | 45° |
| 2026-05-05 23:01 | 40.00892 | -84.12688 | 34827 ft | 475 kts | 42° |
| 2026-05-05 23:02 | 40.05431 | -84.06410 | 34839 ft | 476 kts | 43° |
| 2026-05-05 23:02 | 40.09864 | -84.00162 | 34842 ft | 476 kts | 44° |
| 2026-05-05 23:03 | 40.14346 | -83.93936 | 34861 ft | 471 kts | 44° |
| 2026-05-05 23:03 | 40.18755 | -83.87594 | 34850 ft | 475 kts | 44° |
| 2026-05-05 23:04 | 40.23231 | -83.81203 | 34858 ft | 476 kts | 44° |
| 2026-05-05 23:04 | 40.27679 | -83.74868 | 34846 ft | 475 kts | 44° |
| 2026-05-05 23:05 | 40.32193 | -83.68426 | 34849 ft | 477 kts | 44° |
| 2026-05-05 23:05 | 40.36647 | -83.62055 | 34847 ft | 477 kts | 44° |
| 2026-05-05 23:06 | 40.41134 | -83.55625 | 34855 ft | 478 kts | 44° |
| 2026-05-05 23:06 | 40.45615 | -83.49188 | 34843 ft | 477 kts | 44° |
| 2026-05-05 23:07 | 40.50099 | -83.42735 | 34852 ft | 478 kts | 44° |
| 2026-05-05 23:07 | 40.54549 | -83.36316 | 34849 ft | 477 kts | 44° |
| 2026-05-05 23:08 | 40.58992 | -83.29894 | 34852 ft | 478 kts | 44° |
| 2026-05-05 23:08 | 40.63496 | -83.23369 | 34846 ft | 478 kts | 44° |
| 2026-05-05 23:09 | 40.67942 | -83.16914 | 34853 ft | 479 kts | 44° |
| 2026-05-05 23:09 | 40.72415 | -83.10407 | 34849 ft | 479 kts | 44° |
| 2026-05-05 23:10 | 40.76019 | -83.04779 | 34862 ft | 484 kts | 55° |
| 2026-05-05 23:10 | 40.77464 | -83.00741 | 34874 ft | 490 kts | 67° |
| 2026-05-05 23:10 | 40.78578 | -82.96480 | 34886 ft | 491 kts | 70° |
| 2026-05-05 23:11 | 40.80704 | -82.87959 | 34852 ft | 491 kts | 69° |
| 2026-05-05 23:11 | 40.82901 | -82.79411 | 34854 ft | 491 kts | 69° |
| 2026-05-05 23:12 | 40.85111 | -82.70864 | 34852 ft | 492 kts | 69° |
| 2026-05-05 23:12 | 40.87314 | -82.62324 | 34851 ft | 492 kts | 69° |
| 2026-05-05 23:13 | 40.89520 | -82.53754 | 34851 ft | 492 kts | 68° |
| 2026-05-05 23:13 | 40.90788 | -82.49575 | 34849 ft | 487 kts | 56° |
| 2026-05-05 23:13 | 40.92642 | -82.45867 | 34888 ft | 485 kts | 54° |
| 2026-05-05 23:14 | 40.95449 | -82.37642 | 34826 ft | 493 kts | 66° |
| 2026-05-05 23:14 | 40.97950 | -82.29212 | 34850 ft | 492 kts | 65° |
| 2026-05-05 23:15 | 41.00503 | -82.20805 | 34865 ft | 493 kts | 65° |
| 2026-05-05 23:15 | 41.03050 | -82.12442 | 34860 ft | 493 kts | 65° |
| 2026-05-05 23:16 | 41.05615 | -82.04002 | 34860 ft | 494 kts | 65° |
| 2026-05-05 23:16 | 41.08174 | -81.95554 | 34862 ft | 493 kts | 65° |
| 2026-05-05 23:17 | 41.10728 | -81.87094 | 34867 ft | 494 kts | 65° |
| 2026-05-05 23:17 | 41.13278 | -81.78624 | 34853 ft | 494 kts | 65° |
| 2026-05-05 23:18 | 41.15817 | -81.70159 | 34847 ft | 494 kts | 65° |
| 2026-05-05 23:18 | 41.18338 | -81.61731 | 34845 ft | 494 kts | 65° |
| 2026-05-05 23:19 | 41.20869 | -81.53241 | 34843 ft | 494 kts | 65° |
| 2026-05-05 23:19 | 41.23392 | -81.44749 | 34845 ft | 494 kts | 65° |
| 2026-05-05 23:20 | 41.25913 | -81.36240 | 34842 ft | 495 kts | 65° |
| 2026-05-05 23:20 | 41.28427 | -81.27719 | 34853 ft | 494 kts | 65° |
| 2026-05-05 23:21 | 41.30920 | -81.19246 | 34850 ft | 495 kts | 65° |
| 2026-05-05 23:21 | 41.33423 | -81.10712 | 34854 ft | 495 kts | 65° |
| 2026-05-05 23:22 | 41.35927 | -81.02149 | 34852 ft | 496 kts | 65° |
| 2026-05-05 23:22 | 41.38460 | -80.93463 | 34877 ft | 509 kts | 65° |
| 2026-05-05 23:23 | 41.41031 | -80.84603 | 34847 ft | 514 kts | 65° |
| 2026-05-05 23:23 | 41.43582 | -80.75782 | 34838 ft | 510 kts | 65° |
| 2026-05-05 23:24 | 41.46117 | -80.66990 | 34850 ft | 508 kts | 65° |
| 2026-05-05 23:24 | 41.48646 | -80.58192 | 34861 ft | 508 kts | 65° |
| 2026-05-05 23:25 | 41.51173 | -80.49377 | 34857 ft | 509 kts | 65° |
| 2026-05-05 23:25 | 41.53692 | -80.40554 | 34861 ft | 508 kts | 65° |
| 2026-05-05 23:26 | 41.56211 | -80.31716 | 34859 ft | 509 kts | 65° |
| 2026-05-05 23:26 | 41.58718 | -80.22862 | 34860 ft | 509 kts | 66° |
| 2026-05-05 23:27 | 41.61209 | -80.14065 | 34862 ft | 510 kts | 66° |
| 2026-05-05 23:27 | 41.63716 | -80.05198 | 34860 ft | 509 kts | 65° |
| 2026-05-05 23:28 | 41.66214 | -79.96331 | 34856 ft | 510 kts | 66° |
| 2026-05-05 23:28 | 41.68699 | -79.87436 | 34853 ft | 510 kts | 66° |
| 2026-05-05 23:29 | 41.71188 | -79.78524 | 34854 ft | 510 kts | 66° |
| 2026-05-05 23:29 | 41.73661 | -79.69630 | 34850 ft | 510 kts | 66° |
| 2026-05-05 23:30 | 41.76131 | -79.60726 | 34846 ft | 510 kts | 66° |
| 2026-05-05 23:30 | 41.78580 | -79.51847 | 34851 ft | 510 kts | 66° |
| 2026-05-05 23:31 | 41.81045 | -79.42932 | 34862 ft | 510 kts | 66° |
| 2026-05-05 23:31 | 41.83489 | -79.33993 | 34845 ft | 510 kts | 66° |
| 2026-05-05 23:32 | 41.85931 | -79.25057 | 34849 ft | 510 kts | 66° |
| 2026-05-05 23:32 | 41.88375 | -79.16100 | 34850 ft | 511 kts | 66° |
| 2026-05-05 23:33 | 41.90793 | -79.07192 | 34850 ft | 511 kts | 66° |
| 2026-05-05 23:33 | 41.93214 | -78.98217 | 34835 ft | 511 kts | 67° |
| 2026-05-05 23:34 | 41.95636 | -78.89228 | 34831 ft | 512 kts | 67° |
| 2026-05-05 23:34 | 41.98049 | -78.80207 | 34834 ft | 512 kts | 67° |
| 2026-05-05 23:35 | 42.00462 | -78.71187 | 34829 ft | 513 kts | 67° |
| 2026-05-05 23:35 | 42.02894 | -78.62136 | 34826 ft | 520 kts | 66° |
| 2026-05-05 23:36 | 42.05337 | -78.52942 | 34868 ft | 529 kts | 67° |
| 2026-05-05 23:36 | 42.07805 | -78.43599 | 34854 ft | 531 kts | 67° |
| 2026-05-05 23:37 | 42.10275 | -78.34224 | 34861 ft | 530 kts | 68° |
| 2026-05-05 23:37 | 42.12727 | -78.24852 | 34860 ft | 529 kts | 67° |
| 2026-05-05 23:38 | 42.15184 | -78.15492 | 34854 ft | 530 kts | 68° |
| 2026-05-05 23:38 | 42.17627 | -78.06116 | 34860 ft | 530 kts | 68° |
| 2026-05-05 23:39 | 42.20058 | -77.96734 | 34862 ft | 529 kts | 68° |
| 2026-05-05 23:39 | 42.22480 | -77.87349 | 34851 ft | 530 kts | 68° |
| 2026-05-05 23:40 | 42.24886 | -77.78023 | 34844 ft | 529 kts | 68° |
| 2026-05-05 23:40 | 42.27293 | -77.68627 | 34827 ft | 530 kts | 68° |
| 2026-05-05 23:41 | 42.29689 | -77.59212 | 34831 ft | 529 kts | 68° |
| 2026-05-05 23:41 | 42.32080 | -77.49798 | 34820 ft | 530 kts | 68° |
| 2026-05-05 23:42 | 42.34486 | -77.40355 | 34810 ft | 530 kts | 68° |
| 2026-05-05 23:42 | 42.36856 | -77.30989 | 34803 ft | 530 kts | 69° |
| 2026-05-05 23:43 | 42.39215 | -77.21546 | 34798 ft | 530 kts | 69° |
| 2026-05-05 23:43 | 42.41582 | -77.12108 | 34814 ft | 529 kts | 68° |
| 2026-05-05 23:44 | 42.43841 | -77.02623 | 34813 ft | 528 kts | 76° |
| 2026-05-05 23:44 | 42.44909 | -76.92882 | 34807 ft | 522 kts | 81° |
| 2026-05-05 23:45 | 42.45985 | -76.83171 | 34806 ft | 521 kts | 79° |
| 2026-05-05 23:45 | 42.47129 | -76.73540 | 34818 ft | 521 kts | 80° |
| 2026-05-05 23:46 | 42.48142 | -76.63894 | 34833 ft | 515 kts | 81° |
| 2026-05-05 23:46 | 42.49153 | -76.54275 | 34845 ft | 515 kts | 81° |
| 2026-05-05 23:47 | 42.50166 | -76.44657 | 34842 ft | 515 kts | 81° |
| 2026-05-05 23:47 | 42.51172 | -76.35055 | 34845 ft | 514 kts | 81° |
| 2026-05-05 23:48 | 42.52167 | -76.25462 | 34827 ft | 514 kts | 81° |
| 2026-05-05 23:48 | 42.53146 | -76.15917 | 34819 ft | 513 kts | 81° |
| 2026-05-05 23:49 | 42.54122 | -76.06331 | 34811 ft | 513 kts | 81° |
| 2026-05-05 23:49 | 42.55090 | -75.96740 | 34801 ft | 512 kts | 81° |
| 2026-05-05 23:50 | 42.56050 | -75.87154 | 34806 ft | 513 kts | 81° |
| 2026-05-05 23:50 | 42.57001 | -75.77568 | 34818 ft | 513 kts | 81° |
| 2026-05-05 23:51 | 42.57944 | -75.67971 | 34823 ft | 513 kts | 81° |
| 2026-05-05 23:51 | 42.58881 | -75.58374 | 34822 ft | 513 kts | 81° |
| 2026-05-05 23:52 | 42.59810 | -75.48767 | 34830 ft | 513 kts | 81° |
| 2026-05-05 23:52 | 42.60731 | -75.39157 | 34820 ft | 513 kts | 81° |
| 2026-05-05 23:53 | 42.61639 | -75.29609 | 34817 ft | 513 kts | 81° |
| 2026-05-05 23:53 | 42.62544 | -75.19991 | 34802 ft | 513 kts | 81° |
| 2026-05-05 23:54 | 42.63440 | -75.10393 | 34796 ft | 512 kts | 81° |
| 2026-05-05 23:54 | 42.64330 | -75.00759 | 34789 ft | 513 kts | 81° |
| 2026-05-05 23:55 | 42.65209 | -74.91160 | 34797 ft | 511 kts | 81° |
| 2026-05-05 23:55 | 42.66072 | -74.81643 | 34798 ft | 511 kts | 81° |
| 2026-05-05 23:56 | 42.66934 | -74.72057 | 34785 ft | 510 kts | 82° |
| 2026-05-05 23:56 | 42.67786 | -74.62482 | 34789 ft | 510 kts | 82° |
| 2026-05-05 23:57 | 42.68630 | -74.52905 | 34797 ft | 509 kts | 82° |
| 2026-05-05 23:57 | 42.69324 | -74.44960 | 34793 ft | 509 kts | 82° |
| 2026-05-05 23:58 | 42.70151 | -74.35408 | 34790 ft | 508 kts | 82° |
| 2026-05-05 23:58 | 42.70971 | -74.25845 | 34796 ft | 509 kts | 82° |
| 2026-05-05 23:59 | 42.71778 | -74.16335 | 34797 ft | 508 kts | 82° |
| 2026-05-05 23:59 | 42.72579 | -74.06799 | 34798 ft | 508 kts | 82° |
| 2026-05-06 00:00 | 42.73374 | -73.97250 | 34796 ft | 507 kts | 82° |
| 2026-05-06 00:00 | 42.74159 | -73.87715 | 34805 ft | 507 kts | 82° |
| 2026-05-06 00:01 | 42.74685 | -73.78168 | 34824 ft | 508 kts | 89° |
| 2026-05-06 00:01 | 42.74612 | -73.68564 | 34795 ft | 507 kts | 90° |
| 2026-05-06 00:02 | 42.74523 | -73.59027 | 34795 ft | 506 kts | 90° |
| 2026-05-06 00:02 | 42.74445 | -73.49457 | 34790 ft | 506 kts | 89° |
| 2026-05-06 00:03 | 42.74363 | -73.39887 | 34813 ft | 506 kts | 89° |
| 2026-05-06 00:03 | 42.74272 | -73.30324 | 34827 ft | 506 kts | 89° |
| 2026-05-06 00:04 | 42.74175 | -73.20751 | 34607 ft | 509 kts | 89° |
| 2026-05-06 00:04 | 42.74123 | -73.15926 | 34235 ft | 509 kts | 89° |
| 2026-05-06 00:04 | 42.73992 | -73.11090 | 33429 ft | 516 kts | 95° |
| 2026-05-06 00:05 | 42.72976 | -73.01624 | 32030 ft | 487 kts | 99° |
| 2026-05-06 00:05 | 42.72444 | -72.97190 | 31459 ft | 465 kts | 99° |
| 2026-05-06 00:05 | 42.71931 | -72.92872 | 30836 ft | 459 kts | 99° |
| 2026-05-06 00:06 | 42.71436 | -72.88649 | 30222 ft | 454 kts | 99° |
| 2026-05-06 00:06 | 42.70943 | -72.84434 | 29592 ft | 449 kts | 99° |
| 2026-05-06 00:06 | 42.70458 | -72.80276 | 29037 ft | 443 kts | 99° |
| 2026-05-06 00:06 | 42.69972 | -72.76138 | 28424 ft | 445 kts | 99° |
| 2026-05-06 00:07 | 42.69482 | -72.71956 | 27825 ft | 450 kts | 99° |
| 2026-05-06 00:07 | 42.68988 | -72.67758 | 27233 ft | 450 kts | 100° |
| 2026-05-06 00:07 | 42.68494 | -72.63571 | 26645 ft | 446 kts | 100° |
| 2026-05-06 00:07 | 42.68000 | -72.59431 | 26063 ft | 441 kts | 100° |
| 2026-05-06 00:08 | 42.67502 | -72.55342 | 25493 ft | 436 kts | 101° |
| 2026-05-06 00:08 | 42.67010 | -72.51302 | 24929 ft | 431 kts | 101° |
| 2026-05-06 00:08 | 42.66520 | -72.47294 | 24352 ft | 428 kts | 101° |
| 2026-05-06 00:08 | 42.66034 | -72.43323 | 23802 ft | 424 kts | 101° |
| 2026-05-06 00:09 | 42.65551 | -72.39388 | 23201 ft | 421 kts | 101° |
| 2026-05-06 00:09 | 42.65071 | -72.35490 | 22688 ft | 414 kts | 101° |
| 2026-05-06 00:09 | 42.64603 | -72.31693 | 22141 ft | 412 kts | 101° |
| 2026-05-06 00:09 | 42.64137 | -72.27808 | 21592 ft | 411 kts | 101° |
| 2026-05-06 00:10 | 42.63704 | -72.24035 | 21055 ft | 408 kts | 101° |
| 2026-05-06 00:10 | 42.63269 | -72.20233 | 20516 ft | 405 kts | 101° |
| 2026-05-06 00:10 | 42.62833 | -72.16463 | 19982 ft | 402 kts | 101° |
| 2026-05-06 00:10 | 42.62398 | -72.12741 | 19444 ft | 398 kts | 101° |
| 2026-05-06 00:11 | 42.61964 | -72.09035 | 18909 ft | 395 kts | 101° |
| 2026-05-06 00:11 | 42.61534 | -72.05379 | 18391 ft | 390 kts | 101° |
| 2026-05-06 00:11 | 42.61102 | -72.01752 | 17854 ft | 386 kts | 102° |
| 2026-05-06 00:11 | 42.60660 | -71.98185 | 17543 ft | 378 kts | 102° |
| 2026-05-06 00:12 | 42.60216 | -71.94639 | 16987 ft | 383 kts | 102° |
| 2026-05-06 00:12 | 42.59772 | -71.91091 | 16511 ft | 380 kts | 102° |
| 2026-05-06 00:12 | 42.59337 | -71.87604 | 15986 ft | 379 kts | 102° |
| 2026-05-06 00:12 | 42.58898 | -71.84094 | 15511 ft | 376 kts | 102° |
| 2026-05-06 00:13 | 42.58456 | -71.80602 | 14987 ft | 374 kts | 103° |
| 2026-05-06 00:13 | 42.57929 | -71.77171 | 14521 ft | 369 kts | 105° |
| 2026-05-06 00:13 | 42.57371 | -71.73793 | 14011 ft | 364 kts | 105° |
| 2026-05-06 00:13 | 42.56830 | -71.70470 | 13532 ft | 358 kts | 105° |
| 2026-05-06 00:14 | 42.56303 | -71.67188 | 13070 ft | 352 kts | 105° |
| 2026-05-06 00:14 | 42.55790 | -71.63970 | 12602 ft | 346 kts | 105° |
| 2026-05-06 00:14 | 42.55285 | -71.60799 | 12170 ft | 340 kts | 105° |
| 2026-05-06 00:14 | 42.54786 | -71.57712 | 11849 ft | 331 kts | 107° |
| 2026-05-06 00:15 | 42.54184 | -71.54726 | 11518 ft | 325 kts | 110° |
| 2026-05-06 00:15 | 42.53542 | -71.51812 | 11290 ft | 319 kts | 110° |
| 2026-05-06 00:15 | 42.52912 | -71.48918 | 11043 ft | 321 kts | 110° |
| 2026-05-06 00:15 | 42.52291 | -71.45991 | 10777 ft | 323 kts | 109° |
| 2026-05-06 00:16 | 42.51681 | -71.43063 | 10520 ft | 322 kts | 109° |
| 2026-05-06 00:16 | 42.51073 | -71.40139 | 10268 ft | 322 kts | 110° |
| 2026-05-06 00:16 | 42.50466 | -71.37226 | 9974 ft | 321 kts | 110° |
| 2026-05-06 00:16 | 42.49862 | -71.34301 | 9620 ft | 321 kts | 109° |
| 2026-05-06 00:17 | 42.49285 | -71.31389 | 9304 ft | 318 kts | 109° |
| 2026-05-06 00:17 | 42.48721 | -71.28533 | 8908 ft | 318 kts | 109° |
| 2026-05-06 00:17 | 42.48148 | -71.25657 | 8541 ft | 315 kts | 109° |
| 2026-05-06 00:17 | 42.47578 | -71.22803 | 8178 ft | 313 kts | 110° |
| 2026-05-06 00:18 | 42.47008 | -71.19963 | 7812 ft | 311 kts | 110° |
| 2026-05-06 00:18 | 42.46442 | -71.17142 | 7430 ft | 311 kts | 108° |
| 2026-05-06 00:18 | 42.46354 | -71.14205 | 7015 ft | 318 kts | 80° |
| 2026-05-06 00:18 | 42.47178 | -71.11465 | 6670 ft | 314 kts | 59° |
| 2026-05-06 00:19 | 42.48309 | -71.08961 | 6281 ft | 314 kts | 57° |
| 2026-05-06 00:19 | 42.49497 | -71.06514 | 6093 ft | 302 kts | 46° |
| 2026-05-06 00:19 | 42.51124 | -71.04895 | 5936 ft | 281 kts | 17° |
| 2026-05-06 00:19 | 42.52903 | -71.04111 | 6023 ft | 263 kts | 7° |
| 2026-05-06 00:20 | 42.54678 | -71.03461 | 6042 ft | 266 kts | 8° |
| 2026-05-06 00:20 | 42.56445 | -71.02713 | 6054 ft | 264 kts | 11° |
| 2026-05-06 00:20 | 42.58142 | -71.01892 | 6003 ft | 254 kts | 13° |
| 2026-05-06 00:20 | 42.59743 | -71.01069 | 5963 ft | 244 kts | 13° |
| 2026-05-06 00:21 | 42.61292 | -71.00204 | 5908 ft | 239 kts | 21° |
| 2026-05-06 00:21 | 42.62525 | -70.98670 | 5657 ft | 251 kts | 59° |
| 2026-05-06 00:21 | 42.63080 | -70.96370 | 5345 ft | 259 kts | 81° |
| 2026-05-06 00:21 | 42.63066 | -70.93938 | 5016 ft | 258 kts | 114° |
| 2026-05-06 00:22 | 42.62179 | -70.91952 | 4705 ft | 238 kts | 149° |
| 2026-05-06 00:22 | 42.60788 | -70.91020 | 4443 ft | 216 kts | 176° |
| 2026-05-06 00:22 | 42.59332 | -70.90659 | 4188 ft | 210 kts | 182° |
| 2026-05-06 00:22 | 42.57890 | -70.90368 | 3936 ft | 207 kts | 181° |
| 2026-05-06 00:23 | 42.56569 | -70.90617 | 3686 ft | 183 kts | 208° |
| 2026-05-06 00:23 | 42.55466 | -70.91298 | 3451 ft | 168 kts | 208° |
| 2026-05-06 00:23 | 42.54380 | -70.91790 | 3219 ft | 160 kts | 204° |
| 2026-05-06 00:23 | 42.53357 | -70.92274 | 2990 ft | 151 kts | 208° |
| 2026-05-06 00:24 | 42.52425 | -70.92749 | 2970 ft | 138 kts | 208° |
| 2026-05-06 00:24 | 42.51512 | -70.93190 | 2921 ft | 145 kts | 208° |
| 2026-05-06 00:24 | 42.50572 | -70.93646 | 2737 ft | 141 kts | 208° |
| 2026-05-06 00:24 | 42.49677 | -70.94085 | 2563 ft | 135 kts | 209° |
| 2026-05-06 00:25 | 42.48795 | -70.94517 | 2375 ft | 133 kts | 208° |
| 2026-05-06 00:25 | 42.47923 | -70.94942 | 2196 ft | 133 kts | 207° |
| 2026-05-06 00:25 | 42.47042 | -70.95372 | 2023 ft | 136 kts | 206° |
| 2026-05-06 00:25 | 42.46150 | -70.95805 | 1846 ft | 136 kts | 206° |
| 2026-05-06 00:26 | 42.45276 | -70.96229 | 1672 ft | 129 kts | 207° |
| 2026-05-06 00:26 | 42.44446 | -70.96638 | 1486 ft | 122 kts | 206° |
| 2026-05-06 00:26 | 42.43674 | -70.97010 | 1328 ft | 113 kts | 206° |
| 2026-05-06 00:26 | 42.42964 | -70.97359 | 1169 ft | 107 kts | 205° |
| 2026-05-06 00:27 | 42.42253 | -70.97706 | 1053 ft | 111 kts | 204° |
| 2026-05-06 00:27 | 42.41511 | -70.98065 | 893 ft | 114 kts | 202° |
| 2026-05-06 00:27 | 42.40745 | -70.98442 | 747 ft | 117 kts | 201° |
| 2026-05-06 00:27 | 42.39952 | -70.98832 | 579 ft | 126 kts | 200° |
| 2026-05-06 00:28 | 42.39121 | -70.99237 | 437 ft | 129 kts | 201° |
| 2026-05-06 00:28 | 42.38293 | -70.99639 | 248 ft | 124 kts | 199° |
| 2026-05-06 00:28 | 42.37495 | -71.00026 | 60 ft | 119 kts | 198° |
| 2026-05-06 00:28 | 42.36766 | -71.00370 | 23 ft | 99 kts | 199° |
| 2026-05-06 00:29 | 42.36299 | -71.00598 | 23 ft | 36 kts | 200° |
| 2026-05-06 00:29 | 42.36169 | -71.00687 | 25 ft | 15 kts | 230° |
| 2026-05-06 00:29 | 42.36162 | -71.00854 | 24 ft | 22 kts | 294° |
| 2026-05-06 00:29 | 42.36241 | -71.01088 | 23 ft | 32 kts | 295° |
| 2026-05-06 00:30 | 42.36330 | -71.01305 | 23 ft | 12 kts | 301° |
| 2026-05-06 00:30 | 42.36333 | -71.01312 | 23 ft | 0 kts | 301° |
| 2026-05-06 00:31 | 42.36335 | -71.01318 | 23 ft | 4 kts | 293° |
| 2026-05-06 00:31 | 42.36302 | -71.01358 | 23 ft | 12 kts | 194° |
| 2026-05-06 00:31 | 42.36196 | -71.01401 | 23 ft | 19 kts | 200° |
| 2026-05-06 00:31 | 42.36055 | -71.01468 | 23 ft | 23 kts | 200° |
| 2026-05-06 00:32 | 42.35913 | -71.01540 | 23 ft | 18 kts | 211° |
| 2026-05-06 00:32 | 42.35903 | -71.01699 | 23 ft | 20 kts | 281° |
| 2026-05-06 00:32 | 42.35945 | -71.01881 | 23 ft | 21 kts | 301° |
| 2026-05-06 00:32 | 42.36025 | -71.02062 | 23 ft | 24 kts | 301° |
| 2026-05-06 00:33 | 42.36104 | -71.02237 | 23 ft | 18 kts | 307° |
| 2026-05-06 00:33 | 42.36213 | -71.02263 | 23 ft | 15 kts | 20° |
| 2026-05-06 00:33 | 42.36284 | -71.02224 | 23 ft | 10 kts | 20° |
| 2026-05-06 00:33 | 42.36331 | -71.02190 | 23 ft | 5 kts | 39° |
| 2026-05-06 00:34 | 42.36355 | -71.02163 | 23 ft | 0 kts | 39° |